METAR Data
IDs: Format: Raw Decoded Include TAF

Data at: 1130 UTC 15 Dec 2018

PABI 151053Z AUTO 10006KT 10SM FEW012 BKN120 M12/M15 A2933 RMK AO2 SNE38 SLP981 P0000 T11221150 TSNO
PABI 151030Z AUTO 11008KT 6SM -SN SCT011 BKN120 M12/M15 A2932 RMK AO2 P0000 T11221150 TSNO
PABI 151022Z AUTO 10009KT 6SM -SN BR BKN011 BKN100 BKN120 M12/M14 A2933 RMK AO2 P0000 T11221144 TSNO
PABI 151013Z AUTO 09009KT 5SM -SN BR SCT011 BKN110 M12/M14 A2933 RMK AO2 P0000 T11221144 TSNO
PABI 151000Z AUTO 09007KT 5SM -SN BR FEW007 BKN025 OVC100 M12/M14 A2932 RMK AO2 P0000 T11221144 TSNO
PABI 150953Z AUTO 11007KT 5SM -SN BR BKN014 BKN025 OVC110 M12/M14 A2932 RMK AO2 SLP977 P0000 T11221144 TSNO
PABI 150935Z AUTO 11006KT 5SM -SN BR BKN014 BKN024 OVC100 M12/M14 A2931 RMK AO2 P0000 T11221144 TSNO
PABI 150853Z AUTO 12008KT 7SM -SN BKN025 OVC034 M12/M15 A2930 RMK AO2 SLP971 P0000 60000 T11171150 411171244 53007 TSNO
PABI 150819Z AUTO 11014KT 6SM -SN OVC029 M12/M14 A2928 RMK AO2 P0000 T11171144 TSNO
PABI 150753Z AUTO 10019G23KT 5SM -SN BR OVC033 M12/M14 A2928 RMK AO2 UPB23E24SNE23B24 SLP963 P0000 T11221144 TSNO
PABI 150653Z AUTO 11016KT 4SM -SN OVC042 M12/M15 A2928 RMK AO2 SLP964 P0000 T11221150 TSNO
PABI 150553Z 11013KT 10SM -SN OVC060 M13/M16 A2928 RMK AO2 SNB49 SLP964 P0000 60000 T11281156 11128 21200 55002
PABI 150453Z 00000KT 10SM OVC060 M17/M18 A2928 RMK AO2 SLP966 SHSN DSNT S-SW T11671178
PABI 150353Z 00000KT 10SM SCT060 OVC095 M18/M18 A2927 RMK AO2 SLP965 SHSN DSNT S-SW T11781183
PABI 150253Z 26005KT 10SM SCT060 OVC095 M18/M19 A2928 RMK AO2 SLP970 SHSN DSNT S-SW T11781194 55002
PABI 150153Z 08003KT 10SM SCT060 OVC110 M18/M20 A2928 RMK AO2 SLP971 SHSN DSNT S-SW T11831200
PABI 150053Z 00000KT 10SM SCT070 OVC130 M19/M21 A2929 RMK AO2 SLP976 SHSN DSNT SW T11941211
PABI 142353Z 23004KT 10SM SCT070 OVC130 M19/M21 A2929 RMK AO2 SLP977 SHSN DSNT SW 60000 I6000 T11941206 11189 21228 58001
PABI 142253Z 00000KT 10SM FEW014 FEW070 SCT120 BKN140 M21/M22 A2929 RMK AO2 SLP979 SHSN DSNT SW T12061222
PABI 142153Z 26004KT 10SM FEW014 FEW070 SCT120 BKN140 M21/M22 A2930 RMK AO2 SLP981 T12061222
PABI 142053Z 09005KT 10SM FEW014 FEW070 SCT110 BKN140 M21/M22 A2929 RMK AO2 SLP979 SHSN DSNT SW 60000 I1000 I3000 T12061222 53003
PABI 141953Z 30004KT 10SM FEW014 FEW065 SCT110 SCT200 M20/M21 A2929 RMK AO2 SLP978 SHSN DSNT SW T12001211
PABI 141853Z VRB03KT 10SM FEW014 SCT065 BKN110 M21/M22 A2928 RMK AO2 SNE08 SLP975 SHSN DSNT SW P0000 T12111222
PABI 141818Z 00000KT 10SM SCT014 M20/M21 A2928 RMK AO2 SNE08 P0000 T12001211
PABI 141753Z 36003KT 4SM -SN BR OVC024 M19/M21 A2928 RMK AO2 SNE14B30 SLP974 P0000 60001 T11941206 11178 21239 56010
PABI 141653Z 00000KT 4SM -SN BR OVC033 M19/M21 A2928 RMK AO2 SLP970 P0001 T11941211
PABI 141649Z 26006KT 3SM -SN BR OVC031 M18/M20 A2929 RMK AO2 P0001
PABI 141634Z VRB03KT 2SM -SN BR OVC022 M18/M19 A2928 RMK AO2 P0000 T11831194
PABI 141620Z 02006KT 1 3/4SM -SN BR OVC024 M19/M21 A2928 RMK AO2 P0000 T11891206
PABI 141608Z 00000KT 2SM -SN BR OVC032 M19/M21 A2929 RMK AO2 P0000 T11891206
PABI 141553Z 03003KT 5SM -SN BR OVC046 M19/M21 A2929 RMK AO2 SNB38 SLP974 P0000 T11891206
PABI 141453Z AUTO 00000KT 10SM SCT060 OVC080 M21/M22 A2931 RMK AO2 SLP980 T12061217 56018 TSNO
PABI 141353Z AUTO 00000KT 10SM OVC110 M22/M23 A2933 RMK AO2 SLP986 T12221233 TSNO
PABI 141253Z AUTO 22005KT 10SM CLR M23/M24 A2935 RMK AO2 SLP993 T12281239 TSNO
PABI 141153Z AUTO 00000KT 10SM CLR M23/M24 A2937 RMK AO2 SLP999 I6001 T12331244 11211 21244 58006 TSNO
PABI 141053Z AUTO 18004KT 10SM CLR M22/M23 A2938 RMK AO2 SLP002 T12221228 TSNO
PABI 140953Z AUTO 12004KT 10SM CLR M24/M26 A2938 RMK AO2 SLP005 T12391256 TSNO
PABI 140857Z AUTO 10003KT 3SM BR FEW004 M23/M23 A2939 RMK AO2 T12281233 TSNO
PABI 140853Z AUTO 10003KT 1 3/4SM BR SCT004 M23/M24 A2939 RMK AO2 SLP005 I1001 I3001 T12281239 411441239 50006 TSNO
PABI 140849Z AUTO 00000KT 1 3/4SM BR BKN002 M23/M24 A2939 RMK AO2 I1001 TSNO
PABI 140843Z AUTO 00000KT 3SM BR BKN002 M24/M24 A2939 RMK AO2 I1001 T12391239 TSNO
PABI 140838Z AUTO 00000KT 1 1/2SM BR BKN002 M22/M22 A2939 RMK AO2 VIS 3/4V3 I1001 T12171222 TSNO
PABI 140831Z AUTO 16003KT 3/4SM BR VV002 M22/M23 A2939 RMK AO2 I1001 T12221228 TSNO
PABI 140757Z AUTO 00000KT 1/2SM FZFG VV002 M22/M23 A2939 RMK AO2 T12221228 TSNO
PABI 140753Z AUTO 00000KT 1SM BR VV002 M23/M24 A2939 RMK AO2 SLP007 T12281239 TSNO
PABI 140727Z AUTO 17006KT 10SM BKN004 M23/M24 A2939 RMK AO2 T12331244 TSNO
PABI 140719Z AUTO 16005KT 10SM SCT004 M23/M25 A2939 RMK AO2 T12331250 TSNO
PABI 140653Z AUTO 16003KT 10SM CLR M23/M24 A2939 RMK AO2 SLP006 T12281239 TSNO
PABI 140553Z 18003KT 10SM SCT100 M22/M23 A2937 RMK AO2 SLP998 60000 I6000 T12171233 11150 21217 53010
PABI 140453Z 16003KT 10SM SCT045 SCT100 SCT170 M19/M21 A2936 RMK AO2 SLP991 T11891206
PABI 140353Z 17004KT 10SM SCT045 SCT090 BKN170 M19/M21 A2935 RMK AO2 SLP990 I1000 T11891206
PABI 140253Z 13003KT 9SM FEW013 SCT045 BKN170 M18/M19 A2934 RMK AO2 SNE50 SLP985 P0000 60000 T11781189 51011
PABI 140228Z 00000KT 8SM -SN BKN013 BKN130 OVC170 M17/M18 A2934 RMK AO2 PCPN VRY LGT P0000 T11671178
PABI 140218Z 00000KT 5SM -SN BR BKN015 BKN130 M17/M18 A2933 RMK AO2 PCPN VRY LGT P0000 T11721178
PABI 140153Z 00000KT 9SM -SN SCT027 BKN130 M17/M17 A2932 RMK AO2 SLP977 PCPN VRY LGT P0000 T11671172
PABI 140148Z 00000KT 9SM -SN FEW027 BKN130 M17/M17 A2932 RMK AO2 PCPN VRY LGT P0000
PABI 140113Z 00000KT 7SM -SN FEW023 BKN029 BKN130 M16/M16 A2932 RMK AO2 PCPN VRY LGT P0000 T11561161
PABI 140053Z 00000KT 6SM -SN BR BKN030 BKN120 M16/M16 A2931 RMK AO2 SLP971 PCPN VRY LGT P0000 T11561161
PABI 132353Z 00000KT 7SM -SN FEW013 BKN033 OVC120 M15/M16 A2928 RMK AO2 SNE33B50 SLP962 PCPN VRY LGT P0000 60000 T11501161 11144 21150 53005